Centre Hospitalier Heliport

FR-0049 · Côtes-d'Armor, 布列塔尼半岛, 法国

罗盘
风向 的 风向 240° 直升机
风: 13 kt, 4 beaufort
0 ft 1.000 2.000 3.000 4.000 5.000
Cloud Cloud Cloud Cloud Cloud Cloud Cloud Cloud
OVC 400
METAR LFRO 222030Z AUTO 24013KT 5000 DZ BR OVC004 18/18 Q1019

METAR Centre Hospitalier Heliport - FR-0049

Centre Hospitalier Heliport是,法国中的直升机场。 该机场位于纬度48,72278和经度-3,46528。 这个机场没有ICAO代码,我们使用FR-0049作为参考。 机场在Brest FIR中。

该航空气象观测是针对Lannion-Côte de Granit Airport在2024年7月22日 22:30, 当地时间进行的。

机场观察

风向为240°,速度为13 kt。

可见度为5 km。

有乌云密布在400 ft的高度。 破损或更高的上限为400 ft。

当前天气为细雨, 薄雾。 温度和风寒是18 °C。 露点为18 °C,相对湿度为100%。 海平面上的气压为1019 hPa (QNH)。

白天

今天,太阳从06:35升起,在22:04降落。 这适用于Centre Hospitalier Heliport,世界夏令时可能有所不同。 当地时间与世界标准时间之间的时差为+2 小时。 夏令时目前正在进行中。

公司介绍

我们没有关于这个机场的公司信息。

体会

到Vliegles.nl去找飞行课程,跳伞和其他飞行体验。 浏览页面,了解Centre Hospitalier Heliport附近所有可用的活动。 你也可以使用搜索功能来寻找你所在地附近的特定飞行课程、跳伞或其他飞行体验。

乌云

400 ft OVC 乌云密布

温度 & 天气

天气 细雨
薄雾
温度 18 °C
露点 18 °C
相对湿度 100%
Kp-index 1 (0-9)

白天

日出
06:35 (8:01)
中午
14:20
日落
22:05

小工具

你想在你的网站上有一个关于Centre Hospitalier Heliport的当前航空天气(METAR)的小部件吗?

显示HTML代码
报告变更